Lea County Regional Airport Hobbs US
ICAO: KHOB
IATA: HOB
Category: Medium
Scheduled Services: No

Elevation: 3661 ft
TransAlt. 18000 ft.

Airport Communications:
ATIS:119.75
FORT WORTH CNTR:133.1
CTAF:120.65
GND:121.9
ALBUQUERQUE RDO:122.2
HOBBS TWR:120.65
UNICOM:122.95

KHOB Zoom In..

If you have problems with the map follow the link
https://www.worldairports.se/pages/airport.php?
ICAO=KHOB

Runways:

(A) RW 03 length 7398 ft width 150 ft
ILS 108.50 / hdg 35

(B) RW 12 length 6002 ft width 150 ft
---- / hdg 125

(C) RW 17 length 4998 ft width 100 ft
---- / hdg 170

(D) RW 21 length 7398 ft width 150 ft
---- / hdg 215

(E) RW 30 length 6002 ft width 150 ft
---- / hdg 305

(F) RW 35 length 4998 ft width 100 ft
---- / hdg 350

Location; KHOB
Day. 12 / Time. 23.50 Zulu
* Altimeter: 30.04
* Temperature: 12° c. 53.6°f.
* Wind from: 220° Speed 06 kn.
Dewpoint: -00° c.
Visibility: 10 Statute Miles.
Clouds: Clear (manual report).

KHOB 122350Z 22006KT 10SM SKC 12/M00 A3004


Wind From 220°
Speed 06 kn.

 
 
jpsmedia worldairports.se 2019   terms of use